sensor_id;sensor_type;location;lat;lon;timestamp;P1;durP1;ratioP1;P2;durP2;ratioP2
5690;SDS011;2870;42.680;23.364;2022-12-16T00:01:04;156.73;;;87.47;;
5690;SDS011;2870;42.680;23.364;2022-12-16T00:03:33;149.97;;;81.00;;
5690;SDS011;2870;42.680;23.364;2022-12-16T00:06:00;152.00;;;83.17;;
5690;SDS011;2870;42.680;23.364;2022-12-16T00:08:30;143.87;;;79.00;;
5690;SDS011;2870;42.680;23.364;2022-12-16T00:10:58;148.37;;;79.70;;
5690;SDS011;2870;42.680;23.364;2022-12-16T00:13:25;164.63;;;78.13;;
5690;SDS011;2870;42.680;23.364;2022-12-16T00:15:52;162.57;;;81.87;;
5690;SDS011;2870;42.680;23.364;2022-12-16T00:18:19;153.83;;;82.33;;
5690;SDS011;2870;42.680;23.364;2022-12-16T00:20:48;154.77;;;77.40;;
5690;SDS011;2870;42.680;23.364;2022-12-16T00:23:18;167.00;;;80.93;;
5690;SDS011;2870;42.680;23.364;2022-12-16T00:25:45;156.30;;;76.50;;
5690;SDS011;2870;42.680;23.364;2022-12-16T00:28:13;160.50;;;77.57;;
5690;SDS011;2870;42.680;23.364;2022-12-16T00:30:40;157.40;;;78.67;;
5690;SDS011;2870;42.680;23.364;2022-12-16T00:33:08;153.70;;;72.90;;
5690;SDS011;2870;42.680;23.364;2022-12-16T00:35:35;158.13;;;74.90;;
5690;SDS011;2870;42.680;23.364;2022-12-16T00:38:03;174.73;;;77.90;;
5690;SDS011;2870;42.680;23.364;2022-12-16T00:40:30;160.63;;;76.77;;
5690;SDS011;2870;42.680;23.364;2022-12-16T00:42:57;172.87;;;78.77;;
5690;SDS011;2870;42.680;23.364;2022-12-16T00:45:24;182.00;;;84.10;;
5690;SDS011;2870;42.680;23.364;2022-12-16T00:47:50;143.17;;;75.57;;
5690;SDS011;2870;42.680;23.364;2022-12-16T00:50:17;207.17;;;101.30;;
5690;SDS011;2870;42.680;23.364;2022-12-16T00:52:45;208.03;;;102.30;;
5690;SDS011;2870;42.680;23.364;2022-12-16T00:55:13;254.37;;;113.83;;
5690;SDS011;2870;42.680;23.364;2022-12-16T00:57:41;279.23;;;119.27;;
5690;SDS011;2870;42.680;23.364;2022-12-16T01:00:09;284.30;;;119.77;;
5690;SDS011;2870;42.680;23.364;2022-12-16T01:02:37;292.40;;;125.70;;
5690;SDS011;2870;42.680;23.364;2022-12-16T01:05:05;269.43;;;120.57;;
5690;SDS011;2870;42.680;23.364;2022-12-16T01:07:32;277.43;;;117.10;;
5690;SDS011;2870;42.680;23.364;2022-12-16T01:09:59;277.37;;;121.57;;
5690;SDS011;2870;42.680;23.364;2022-12-16T01:12:28;243.63;;;108.20;;
5690;SDS011;2870;42.680;23.364;2022-12-16T01:14:54;258.83;;;111.33;;
5690;SDS011;2870;42.680;23.364;2022-12-16T01:17:21;226.30;;;108.93;;
5690;SDS011;2870;42.680;23.364;2022-12-16T01:19:50;235.70;;;107.20;;
5690;SDS011;2870;42.680;23.364;2022-12-16T01:22:17;254.00;;;105.63;;
5690;SDS011;2870;42.680;23.364;2022-12-16T01:24:44;218.47;;;100.17;;
5690;SDS011;2870;42.680;23.364;2022-12-16T01:27:11;265.30;;;112.07;;
5690;SDS011;2870;42.680;23.364;2022-12-16T01:29:39;225.23;;;100.03;;
5690;SDS011;2870;42.680;23.364;2022-12-16T01:32:07;278.67;;;110.93;;
5690;SDS011;2870;42.680;23.364;2022-12-16T01:34:37;231.13;;;106.57;;
5690;SDS011;2870;42.680;23.364;2022-12-16T01:37:04;269.43;;;110.47;;
5690;SDS011;2870;42.680;23.364;2022-12-16T01:39:31;231.47;;;106.90;;
5690;SDS011;2870;42.680;23.364;2022-12-16T01:41:58;254.13;;;105.80;;
5690;SDS011;2870;42.680;23.364;2022-12-16T01:44:25;224.43;;;103.80;;
5690;SDS011;2870;42.680;23.364;2022-12-16T01:46:54;223.00;;;95.37;;
5690;SDS011;2870;42.680;23.364;2022-12-16T01:49:24;204.37;;;89.80;;
5690;SDS011;2870;42.680;23.364;2022-12-16T01:51:55;232.03;;;95.37;;
5690;SDS011;2870;42.680;23.364;2022-12-16T01:54:27;238.70;;;95.27;;
5690;SDS011;2870;42.680;23.364;2022-12-16T01:57:00;184.40;;;95.17;;
5690;SDS011;2870;42.680;23.364;2022-12-16T01:59:32;191.83;;;90.20;;
5690;SDS011;2870;42.680;23.364;2022-12-16T02:02:03;218.57;;;99.00;;
5690;SDS011;2870;42.680;23.364;2022-12-16T02:04:30;223.07;;;102.17;;
5690;SDS011;2870;42.680;23.364;2022-12-16T02:06:57;235.93;;;103.27;;
5690;SDS011;2870;42.680;23.364;2022-12-16T02:09:25;208.67;;;95.60;;
5690;SDS011;2870;42.680;23.364;2022-12-16T02:11:56;234.60;;;102.77;;
5690;SDS011;2870;42.680;23.364;2022-12-16T02:17:33;212.67;;;103.77;;
5690;SDS011;2870;42.680;23.364;2022-12-16T02:20:29;211.57;;;99.47;;
5690;SDS011;2870;42.680;23.364;2022-12-16T02:23:15;230.53;;;101.77;;
5690;SDS011;2870;42.680;23.364;2022-12-16T02:26:09;214.87;;;101.73;;
5690;SDS011;2870;42.680;23.364;2022-12-16T02:29:00;210.77;;;99.37;;
5690;SDS011;2870;42.680;23.364;2022-12-16T02:31:46;207.20;;;96.80;;
5690;SDS011;2870;42.680;23.364;2022-12-16T02:34:20;214.00;;;98.40;;
5690;SDS011;2870;42.680;23.364;2022-12-16T02:37:03;230.03;;;97.80;;
5690;SDS011;2870;42.680;23.364;2022-12-16T02:39:41;229.37;;;96.07;;
5690;SDS011;2870;42.680;23.364;2022-12-16T02:42:12;211.00;;;94.03;;
5690;SDS011;2870;42.680;23.364;2022-12-16T02:44:43;210.13;;;89.57;;
5690;SDS011;2870;42.680;23.364;2022-12-16T02:47:19;211.70;;;92.40;;
5690;SDS011;2870;42.680;23.364;2022-12-16T02:49:47;205.93;;;85.10;;
5690;SDS011;2870;42.680;23.364;2022-12-16T02:52:17;201.07;;;85.67;;
5690;SDS011;2870;42.680;23.364;2022-12-16T02:54:47;203.63;;;83.87;;
5690;SDS011;2870;42.680;23.364;2022-12-16T02:57:22;223.00;;;89.20;;
5690;SDS011;2870;42.680;23.364;2022-12-16T03:00:10;193.17;;;80.37;;
5690;SDS011;2870;42.680;23.364;2022-12-16T03:02:44;185.80;;;79.97;;
5690;SDS011;2870;42.680;23.364;2022-12-16T03:05:17;174.13;;;77.63;;
5690;SDS011;2870;42.680;23.364;2022-12-16T03:07:49;207.37;;;80.70;;
5690;SDS011;2870;42.680;23.364;2022-12-16T03:10:20;182.57;;;79.50;;
5690;SDS011;2870;42.680;23.364;2022-12-16T03:12:52;173.60;;;74.93;;
5690;SDS011;2870;42.680;23.364;2022-12-16T03:15:22;215.93;;;78.40;;
5690;SDS011;2870;42.680;23.364;2022-12-16T03:17:52;160.23;;;70.70;;
5690;SDS011;2870;42.680;23.364;2022-12-16T03:20:22;177.30;;;72.40;;
5690;SDS011;2870;42.680;23.364;2022-12-16T03:22:53;164.73;;;70.47;;
5690;SDS011;2870;42.680;23.364;2022-12-16T03:25:22;170.07;;;72.83;;
5690;SDS011;2870;42.680;23.364;2022-12-16T03:27:53;167.57;;;75.00;;
5690;SDS011;2870;42.680;23.364;2022-12-16T03:30:24;193.17;;;75.60;;
5690;SDS011;2870;42.680;23.364;2022-12-16T03:32:57;162.30;;;71.57;;
5690;SDS011;2870;42.680;23.364;2022-12-16T03:35:27;161.83;;;72.67;;
5690;SDS011;2870;42.680;23.364;2022-12-16T03:37:59;165.37;;;70.60;;
5690;SDS011;2870;42.680;23.364;2022-12-16T03:40:29;166.63;;;67.87;;
5690;SDS011;2870;42.680;23.364;2022-12-16T03:42:58;155.37;;;67.53;;
5690;SDS011;2870;42.680;23.364;2022-12-16T03:45:28;143.63;;;61.77;;
5690;SDS011;2870;42.680;23.364;2022-12-16T03:47:59;165.67;;;64.70;;
5690;SDS011;2870;42.680;23.364;2022-12-16T03:50:27;175.77;;;69.10;;
5690;SDS011;2870;42.680;23.364;2022-12-16T03:52:57;161.67;;;65.03;;
5690;SDS011;2870;42.680;23.364;2022-12-16T03:55:23;149.60;;;62.73;;
5690;SDS011;2870;42.680;23.364;2022-12-16T03:57:50;152.63;;;61.43;;
5690;SDS011;2870;42.680;23.364;2022-12-16T04:00:17;124.10;;;56.80;;
5690;SDS011;2870;42.680;23.364;2022-12-16T04:02:45;118.90;;;54.67;;
5690;SDS011;2870;42.680;23.364;2022-12-16T04:05:14;113.27;;;56.70;;
5690;SDS011;2870;42.680;23.364;2022-12-16T04:07:41;129.57;;;58.70;;
5690;SDS011;2870;42.680;23.364;2022-12-16T04:10:08;122.87;;;53.83;;
5690;SDS011;2870;42.680;23.364;2022-12-16T04:12:35;134.07;;;54.77;;
5690;SDS011;2870;42.680;23.364;2022-12-16T04:15:19;90.53;;;45.53;;
5690;SDS011;2870;42.680;23.364;2022-12-16T04:18:04;96.93;;;45.40;;
5690;SDS011;2870;42.680;23.364;2022-12-16T04:20:50;100.00;;;46.67;;
5690;SDS011;2870;42.680;23.364;2022-12-16T04:23:38;102.63;;;46.77;;
5690;SDS011;2870;42.680;23.364;2022-12-16T04:26:28;92.73;;;48.20;;
5690;SDS011;2870;42.680;23.364;2022-12-16T04:28:55;106.47;;;50.13;;
5690;SDS011;2870;42.680;23.364;2022-12-16T04:31:22;96.90;;;45.63;;
5690;SDS011;2870;42.680;23.364;2022-12-16T04:33:48;107.03;;;48.67;;
5690;SDS011;2870;42.680;23.364;2022-12-16T04:36:34;124.20;;;52.30;;
5690;SDS011;2870;42.680;23.364;2022-12-16T04:39:18;109.83;;;51.07;;
5690;SDS011;2870;42.680;23.364;2022-12-16T04:42:02;127.03;;;52.47;;
5690;SDS011;2870;42.680;23.364;2022-12-16T04:44:47;100.23;;;48.03;;
5690;SDS011;2870;42.680;23.364;2022-12-16T04:47:30;111.27;;;49.33;;
5690;SDS011;2870;42.680;23.364;2022-12-16T04:50:14;98.23;;;48.97;;
5690;SDS011;2870;42.680;23.364;2022-12-16T04:53:00;89.50;;;43.20;;
5690;SDS011;2870;42.680;23.364;2022-12-16T04:55:44;91.67;;;42.33;;
5690;SDS011;2870;42.680;23.364;2022-12-16T04:58:28;104.23;;;41.00;;
5690;SDS011;2870;42.680;23.364;2022-12-16T05:01:12;93.90;;;42.10;;
5690;SDS011;2870;42.680;23.364;2022-12-16T05:03:56;87.03;;;40.53;;
5690;SDS011;2870;42.680;23.364;2022-12-16T05:06:40;101.43;;;44.80;;
5690;SDS011;2870;42.680;23.364;2022-12-16T05:09:25;108.90;;;44.70;;
5690;SDS011;2870;42.680;23.364;2022-12-16T05:12:10;99.07;;;43.70;;
5690;SDS011;2870;42.680;23.364;2022-12-16T05:14:53;93.60;;;43.17;;
5690;SDS011;2870;42.680;23.364;2022-12-16T05:17:37;98.63;;;44.17;;
5690;SDS011;2870;42.680;23.364;2022-12-16T05:20:21;91.10;;;42.13;;
5690;SDS011;2870;42.680;23.364;2022-12-16T05:23:05;103.70;;;42.37;;
5690;SDS011;2870;42.680;23.364;2022-12-16T05:25:51;96.57;;;43.70;;
5690;SDS011;2870;42.680;23.364;2022-12-16T05:28:35;97.80;;;46.10;;
5690;SDS011;2870;42.680;23.364;2022-12-16T05:31:19;95.70;;;44.30;;
5690;SDS011;2870;42.680;23.364;2022-12-16T05:34:03;100.33;;;45.57;;
5690;SDS011;2870;42.680;23.364;2022-12-16T05:36:47;114.27;;;47.87;;
5690;SDS011;2870;42.680;23.364;2022-12-16T05:39:31;106.60;;;49.47;;
5690;SDS011;2870;42.680;23.364;2022-12-16T05:42:17;115.93;;;58.50;;
5690;SDS011;2870;42.680;23.364;2022-12-16T05:45:01;122.20;;;58.17;;
5690;SDS011;2870;42.680;23.364;2022-12-16T05:47:46;139.10;;;61.80;;
5690;SDS011;2870;42.680;23.364;2022-12-16T05:50:30;129.63;;;59.70;;
5690;SDS011;2870;42.680;23.364;2022-12-16T05:53:14;136.50;;;62.20;;
5690;SDS011;2870;42.680;23.364;2022-12-16T05:55:58;134.67;;;60.23;;
5690;SDS011;2870;42.680;23.364;2022-12-16T05:58:44;143.53;;;64.50;;
5690;SDS011;2870;42.680;23.364;2022-12-16T06:01:28;135.73;;;58.40;;
5690;SDS011;2870;42.680;23.364;2022-12-16T06:04:12;126.67;;;54.30;;
5690;SDS011;2870;42.680;23.364;2022-12-16T06:06:56;103.17;;;47.87;;
5690;SDS011;2870;42.680;23.364;2022-12-16T06:09:40;123.30;;;48.03;;
5690;SDS011;2870;42.680;23.364;2022-12-16T06:12:24;104.97;;;45.40;;
5690;SDS011;2870;42.680;23.364;2022-12-16T06:15:10;111.43;;;47.10;;
5690;SDS011;2870;42.680;23.364;2022-12-16T06:17:54;101.17;;;44.30;;
5690;SDS011;2870;42.680;23.364;2022-12-16T06:20:39;100.37;;;45.90;;
5690;SDS011;2870;42.680;23.364;2022-12-16T06:23:23;99.70;;;43.07;;
5690;SDS011;2870;42.680;23.364;2022-12-16T06:26:07;90.77;;;43.50;;
5690;SDS011;2870;42.680;23.364;2022-12-16T06:28:51;89.90;;;41.43;;
5690;SDS011;2870;42.680;23.364;2022-12-16T06:31:36;94.33;;;39.03;;
5690;SDS011;2870;42.680;23.364;2022-12-16T06:34:21;104.47;;;41.20;;
5690;SDS011;2870;42.680;23.364;2022-12-16T06:37:10;96.23;;;39.00;;
5690;SDS011;2870;42.680;23.364;2022-12-16T06:39:54;92.90;;;39.57;;
5690;SDS011;2870;42.680;23.364;2022-12-16T06:42:38;94.73;;;39.77;;
5690;SDS011;2870;42.680;23.364;2022-12-16T06:45:31;97.57;;;39.27;;
5690;SDS011;2870;42.680;23.364;2022-12-16T06:48:17;92.07;;;36.90;;
5690;SDS011;2870;42.680;23.364;2022-12-16T06:51:01;100.47;;;38.20;;
5690;SDS011;2870;42.680;23.364;2022-12-16T06:53:45;86.73;;;36.00;;
5690;SDS011;2870;42.680;23.364;2022-12-16T06:56:29;71.80;;;34.23;;
5690;SDS011;2870;42.680;23.364;2022-12-16T06:59:13;80.60;;;32.43;;
5690;SDS011;2870;42.680;23.364;2022-12-16T07:01:57;80.03;;;32.80;;
5690;SDS011;2870;42.680;23.364;2022-12-16T07:04:42;89.43;;;34.40;;
5690;SDS011;2870;42.680;23.364;2022-12-16T07:07:26;83.20;;;36.40;;
5690;SDS011;2870;42.680;23.364;2022-12-16T07:10:11;72.73;;;32.13;;
5690;SDS011;2870;42.680;23.364;2022-12-16T07:12:56;69.83;;;32.27;;
5690;SDS011;2870;42.680;23.364;2022-12-16T07:15:40;71.03;;;32.03;;
5690;SDS011;2870;42.680;23.364;2022-12-16T07:18:24;94.30;;;37.77;;
5690;SDS011;2870;42.680;23.364;2022-12-16T07:21:10;82.63;;;34.93;;
5690;SDS011;2870;42.680;23.364;2022-12-16T07:23:54;80.27;;;35.30;;
5690;SDS011;2870;42.680;23.364;2022-12-16T07:26:38;75.07;;;34.83;;
5690;SDS011;2870;42.680;23.364;2022-12-16T07:29:23;86.57;;;36.57;;
5690;SDS011;2870;42.680;23.364;2022-12-16T07:32:06;84.07;;;37.40;;
5690;SDS011;2870;42.680;23.364;2022-12-16T07:34:50;69.03;;;34.10;;
5690;SDS011;2870;42.680;23.364;2022-12-16T07:37:37;75.70;;;34.47;;
5690;SDS011;2870;42.680;23.364;2022-12-16T07:40:21;72.83;;;37.43;;
5690;SDS011;2870;42.680;23.364;2022-12-16T07:43:06;75.07;;;38.30;;
5690;SDS011;2870;42.680;23.364;2022-12-16T07:46:01;69.27;;;34.90;;
5690;SDS011;2870;42.680;23.364;2022-12-16T07:48:45;77.50;;;37.63;;
5690;SDS011;2870;42.680;23.364;2022-12-16T07:51:29;75.77;;;38.27;;
5690;SDS011;2870;42.680;23.364;2022-12-16T07:54:15;80.23;;;37.50;;
5690;SDS011;2870;42.680;23.364;2022-12-16T07:56:59;84.80;;;38.87;;
5690;SDS011;2870;42.680;23.364;2022-12-16T07:59:43;81.37;;;36.13;;
5690;SDS011;2870;42.680;23.364;2022-12-16T08:02:27;78.57;;;39.67;;
5690;SDS011;2870;42.680;23.364;2022-12-16T08:05:11;79.60;;;38.23;;
5690;SDS011;2870;42.680;23.364;2022-12-16T08:07:55;81.87;;;37.40;;
5690;SDS011;2870;42.680;23.364;2022-12-16T08:10:41;76.83;;;37.47;;
5690;SDS011;2870;42.680;23.364;2022-12-16T08:13:25;76.70;;;39.07;;
5690;SDS011;2870;42.680;23.364;2022-12-16T08:16:10;78.13;;;37.17;;
5690;SDS011;2870;42.680;23.364;2022-12-16T08:18:54;83.47;;;38.97;;
5690;SDS011;2870;42.680;23.364;2022-12-16T08:21:37;89.97;;;40.33;;
5690;SDS011;2870;42.680;23.364;2022-12-16T08:24:21;76.97;;;39.43;;
5690;SDS011;2870;42.680;23.364;2022-12-16T08:27:07;74.80;;;38.17;;
5690;SDS011;2870;42.680;23.364;2022-12-16T08:29:51;84.53;;;40.93;;
5690;SDS011;2870;42.680;23.364;2022-12-16T08:32:34;86.47;;;44.37;;
5690;SDS011;2870;42.680;23.364;2022-12-16T08:35:19;93.83;;;45.63;;
5690;SDS011;2870;42.680;23.364;2022-12-16T08:38:03;96.93;;;44.07;;
5690;SDS011;2870;42.680;23.364;2022-12-16T08:40:47;93.10;;;45.80;;
5690;SDS011;2870;42.680;23.364;2022-12-16T08:43:32;106.23;;;48.13;;
5690;SDS011;2870;42.680;23.364;2022-12-16T08:46:18;101.23;;;46.53;;
5690;SDS011;2870;42.680;23.364;2022-12-16T08:49:03;107.13;;;48.60;;
5690;SDS011;2870;42.680;23.364;2022-12-16T08:51:59;98.43;;;46.37;;
5690;SDS011;2870;42.680;23.364;2022-12-16T08:54:43;108.80;;;46.40;;
5690;SDS011;2870;42.680;23.364;2022-12-16T08:57:27;98.80;;;42.00;;
5690;SDS011;2870;42.680;23.364;2022-12-16T09:00:13;87.87;;;42.70;;
5690;SDS011;2870;42.680;23.364;2022-12-16T09:02:57;92.17;;;43.07;;
5690;SDS011;2870;42.680;23.364;2022-12-16T09:05:42;93.27;;;41.00;;
5690;SDS011;2870;42.680;23.364;2022-12-16T09:08:26;97.50;;;40.23;;
5690;SDS011;2870;42.680;23.364;2022-12-16T09:11:11;76.83;;;39.10;;
5690;SDS011;2870;42.680;23.364;2022-12-16T09:13:55;74.50;;;35.47;;
5690;SDS011;2870;42.680;23.364;2022-12-16T09:16:41;79.73;;;37.10;;
5690;SDS011;2870;42.680;23.364;2022-12-16T09:19:25;76.53;;;39.20;;
5690;SDS011;2870;42.680;23.364;2022-12-16T09:22:09;80.93;;;37.53;;
5690;SDS011;2870;42.680;23.364;2022-12-16T09:24:53;91.53;;;40.07;;
5690;SDS011;2870;42.680;23.364;2022-12-16T09:27:37;63.57;;;35.57;;
5690;SDS011;2870;42.680;23.364;2022-12-16T09:30:22;67.27;;;35.33;;
5690;SDS011;2870;42.680;23.364;2022-12-16T09:33:07;71.23;;;35.47;;
5690;SDS011;2870;42.680;23.364;2022-12-16T09:35:51;75.83;;;34.73;;
5690;SDS011;2870;42.680;23.364;2022-12-16T09:38:35;73.37;;;34.13;;
5690;SDS011;2870;42.680;23.364;2022-12-16T09:41:24;67.30;;;34.50;;
5690;SDS011;2870;42.680;23.364;2022-12-16T09:44:25;67.00;;;35.40;;
5690;SDS011;2870;42.680;23.364;2022-12-16T09:47:19;67.90;;;34.90;;
5690;SDS011;2870;42.680;23.364;2022-12-16T09:50:17;64.17;;;35.60;;
5690;SDS011;2870;42.680;23.364;2022-12-16T09:53:04;67.03;;;31.93;;
5690;SDS011;2870;42.680;23.364;2022-12-16T09:55:49;56.73;;;30.20;;
5690;SDS011;2870;42.680;23.364;2022-12-16T09:58:35;69.13;;;34.23;;
5690;SDS011;2870;42.680;23.364;2022-12-16T10:01:24;66.63;;;34.20;;
5690;SDS011;2870;42.680;23.364;2022-12-16T10:04:09;55.40;;;32.67;;
5690;SDS011;2870;42.680;23.364;2022-12-16T10:06:56;59.47;;;31.27;;
5690;SDS011;2870;42.680;23.364;2022-12-16T10:09:43;63.30;;;35.87;;
5690;SDS011;2870;42.680;23.364;2022-12-16T10:12:38;63.70;;;33.50;;
5690;SDS011;2870;42.680;23.364;2022-12-16T10:15:30;86.00;;;36.70;;
5690;SDS011;2870;42.680;23.364;2022-12-16T10:18:28;60.73;;;33.90;;
5690;SDS011;2870;42.680;23.364;2022-12-16T10:21:22;69.57;;;35.37;;
5690;SDS011;2870;42.680;23.364;2022-12-16T10:24:16;71.40;;;35.40;;
5690;SDS011;2870;42.680;23.364;2022-12-16T10:27:10;70.90;;;36.83;;
5690;SDS011;2870;42.680;23.364;2022-12-16T10:29:57;64.00;;;36.80;;
5690;SDS011;2870;42.680;23.364;2022-12-16T10:32:43;68.97;;;36.87;;
5690;SDS011;2870;42.680;23.364;2022-12-16T10:35:30;66.67;;;36.67;;
5690;SDS011;2870;42.680;23.364;2022-12-16T10:38:19;71.00;;;37.83;;
5690;SDS011;2870;42.680;23.364;2022-12-16T10:41:07;70.53;;;38.63;;
5690;SDS011;2870;42.680;23.364;2022-12-16T10:43:54;63.87;;;38.23;;
5690;SDS011;2870;42.680;23.364;2022-12-16T10:46:41;58.47;;;35.23;;
5690;SDS011;2870;42.680;23.364;2022-12-16T10:49:25;58.83;;;34.97;;
5690;SDS011;2870;42.680;23.364;2022-12-16T10:52:10;58.40;;;35.37;;
5690;SDS011;2870;42.680;23.364;2022-12-16T10:55:01;70.50;;;36.33;;
5690;SDS011;2870;42.680;23.364;2022-12-16T10:57:57;61.97;;;35.80;;
5690;SDS011;2870;42.680;23.364;2022-12-16T11:00:48;61.07;;;36.73;;
5690;SDS011;2870;42.680;23.364;2022-12-16T11:03:48;60.23;;;36.67;;
5690;SDS011;2870;42.680;23.364;2022-12-16T11:06:34;58.37;;;36.17;;
5690;SDS011;2870;42.680;23.364;2022-12-16T11:09:21;66.73;;;35.20;;
5690;SDS011;2870;42.680;23.364;2022-12-16T11:12:13;55.00;;;29.40;;
5690;SDS011;2870;42.680;23.364;2022-12-16T11:15:12;60.23;;;33.30;;
5690;SDS011;2870;42.680;23.364;2022-12-16T11:18:03;57.20;;;32.30;;
5690;SDS011;2870;42.680;23.364;2022-12-16T11:20:57;60.57;;;33.07;;
5690;SDS011;2870;42.680;23.364;2022-12-16T11:24:09;56.57;;;33.97;;
5690;SDS011;2870;42.680;23.364;2022-12-16T11:26:56;60.20;;;35.57;;
5690;SDS011;2870;42.680;23.364;2022-12-16T11:32:44;57.27;;;30.87;;
5690;SDS011;2870;42.680;23.364;2022-12-16T11:35:31;56.87;;;30.87;;
5690;SDS011;2870;42.680;23.364;2022-12-16T11:38:21;58.33;;;32.87;;
5690;SDS011;2870;42.680;23.364;2022-12-16T11:41:14;50.70;;;27.50;;
5690;SDS011;2870;42.680;23.364;2022-12-16T11:44:07;45.03;;;27.13;;
5690;SDS011;2870;42.680;23.364;2022-12-16T11:46:59;43.87;;;25.77;;
5690;SDS011;2870;42.680;23.364;2022-12-16T11:49:45;42.63;;;25.57;;
5690;SDS011;2870;42.680;23.364;2022-12-16T11:52:29;44.50;;;27.10;;
5690;SDS011;2870;42.680;23.364;2022-12-16T11:55:18;102.17;;;52.57;;
5690;SDS011;2870;42.680;23.364;2022-12-16T11:58:10;39.97;;;25.20;;
5690;SDS011;2870;42.680;23.364;2022-12-16T12:01:02;42.93;;;25.53;;
5690;SDS011;2870;42.680;23.364;2022-12-16T12:03:52;70.90;;;39.10;;
5690;SDS011;2870;42.680;23.364;2022-12-16T12:06:45;47.40;;;27.60;;
5690;SDS011;2870;42.680;23.364;2022-12-16T12:09:47;47.00;;;26.80;;
5690;SDS011;2870;42.680;23.364;2022-12-16T12:12:37;45.43;;;26.57;;
5690;SDS011;2870;42.680;23.364;2022-12-16T12:15:30;51.47;;;28.93;;
5690;SDS011;2870;42.680;23.364;2022-12-16T12:18:22;50.63;;;26.60;;
5690;SDS011;2870;42.680;23.364;2022-12-16T12:21:12;49.47;;;28.50;;
5690;SDS011;2870;42.680;23.364;2022-12-16T12:24:04;45.50;;;26.73;;
5690;SDS011;2870;42.680;23.364;2022-12-16T12:27:00;45.63;;;26.77;;
5690;SDS011;2870;42.680;23.364;2022-12-16T12:29:51;44.60;;;25.83;;
5690;SDS011;2870;42.680;23.364;2022-12-16T12:32:46;51.87;;;28.70;;
5690;SDS011;2870;42.680;23.364;2022-12-16T12:35:41;46.83;;;27.57;;
5690;SDS011;2870;42.680;23.364;2022-12-16T12:38:34;46.50;;;28.33;;
5690;SDS011;2870;42.680;23.364;2022-12-16T12:41:40;51.83;;;28.47;;
5690;SDS011;2870;42.680;23.364;2022-12-16T12:44:35;46.47;;;27.00;;
5690;SDS011;2870;42.680;23.364;2022-12-16T12:47:26;47.50;;;25.63;;
5690;SDS011;2870;42.680;23.364;2022-12-16T12:50:14;44.23;;;26.27;;
5690;SDS011;2870;42.680;23.364;2022-12-16T12:53:13;50.43;;;28.37;;
5690;SDS011;2870;42.680;23.364;2022-12-16T12:56:06;50.90;;;29.50;;
5690;SDS011;2870;42.680;23.364;2022-12-16T12:59:00;52.10;;;28.50;;
5690;SDS011;2870;42.680;23.364;2022-12-16T13:01:51;51.97;;;29.80;;
5690;SDS011;2870;42.680;23.364;2022-12-16T13:04:37;69.10;;;31.83;;
5690;SDS011;2870;42.680;23.364;2022-12-16T13:07:22;52.80;;;31.53;;
5690;SDS011;2870;42.680;23.364;2022-12-16T13:10:17;63.57;;;31.90;;
5690;SDS011;2870;42.680;23.364;2022-12-16T13:19:45;49.30;;;28.23;;
5690;SDS011;2870;42.680;23.364;2022-12-16T13:22:39;48.73;;;30.03;;
5690;SDS011;2870;42.680;23.364;2022-12-16T13:28:33;55.70;;;29.33;;
5690;SDS011;2870;42.680;23.364;2022-12-16T13:31:19;49.90;;;28.60;;
5690;SDS011;2870;42.680;23.364;2022-12-16T13:34:05;53.40;;;28.90;;
5690;SDS011;2870;42.680;23.364;2022-12-16T13:37:04;60.63;;;27.60;;
5690;SDS011;2870;42.680;23.364;2022-12-16T13:40:00;43.90;;;26.00;;
5690;SDS011;2870;42.680;23.364;2022-12-16T13:42:49;48.03;;;26.43;;
5690;SDS011;2870;42.680;23.364;2022-12-16T13:45:37;48.30;;;25.43;;
5690;SDS011;2870;42.680;23.364;2022-12-16T13:54:44;48.33;;;28.57;;
5690;SDS011;2870;42.680;23.364;2022-12-16T13:57:34;50.60;;;29.60;;
5690;SDS011;2870;42.680;23.364;2022-12-16T14:00:21;53.93;;;30.90;;
5690;SDS011;2870;42.680;23.364;2022-12-16T14:03:08;48.00;;;29.00;;
5690;SDS011;2870;42.680;23.364;2022-12-16T14:06:05;58.77;;;30.97;;
5690;SDS011;2870;42.680;23.364;2022-12-16T14:08:55;61.37;;;31.97;;
5690;SDS011;2870;42.680;23.364;2022-12-16T14:11:46;57.87;;;32.20;;
5690;SDS011;2870;42.680;23.364;2022-12-16T14:14:37;62.97;;;32.13;;
5690;SDS011;2870;42.680;23.364;2022-12-16T14:17:27;59.80;;;30.53;;
5690;SDS011;2870;42.680;23.364;2022-12-16T14:20:18;59.30;;;32.63;;
5690;SDS011;2870;42.680;23.364;2022-12-16T14:23:11;51.67;;;30.37;;
5690;SDS011;2870;42.680;23.364;2022-12-16T14:26:10;54.63;;;31.63;;
5690;SDS011;2870;42.680;23.364;2022-12-16T14:28:58;52.93;;;31.20;;
5690;SDS011;2870;42.680;23.364;2022-12-16T14:31:58;48.40;;;29.07;;
5690;SDS011;2870;42.680;23.364;2022-12-16T14:34:43;44.23;;;28.43;;
5690;SDS011;2870;42.680;23.364;2022-12-16T14:37:31;46.13;;;26.97;;
5690;SDS011;2870;42.680;23.364;2022-12-16T14:40:18;43.23;;;24.80;;
5690;SDS011;2870;42.680;23.364;2022-12-16T14:43:09;42.77;;;26.20;;
5690;SDS011;2870;42.680;23.364;2022-12-16T14:45:57;46.53;;;25.27;;
5690;SDS011;2870;42.680;23.364;2022-12-16T14:48:44;49.03;;;26.40;;
5690;SDS011;2870;42.680;23.364;2022-12-16T14:51:29;44.33;;;26.10;;
5690;SDS011;2870;42.680;23.364;2022-12-16T14:54:15;48.50;;;26.47;;
5690;SDS011;2870;42.680;23.364;2022-12-16T14:57:02;43.00;;;25.57;;
5690;SDS011;2870;42.680;23.364;2022-12-16T14:59:46;47.10;;;24.33;;
5690;SDS011;2870;42.680;23.364;2022-12-16T15:02:43;44.87;;;25.20;;
5690;SDS011;2870;42.680;23.364;2022-12-16T15:05:32;45.13;;;26.00;;
5690;SDS011;2870;42.680;23.364;2022-12-16T15:08:17;51.90;;;28.10;;
5690;SDS011;2870;42.680;23.364;2022-12-16T15:11:03;48.97;;;26.50;;
5690;SDS011;2870;42.680;23.364;2022-12-16T15:13:52;64.13;;;28.23;;
5690;SDS011;2870;42.680;23.364;2022-12-16T15:16:40;45.33;;;25.33;;
5690;SDS011;2870;42.680;23.364;2022-12-16T15:19:27;45.40;;;25.17;;
5690;SDS011;2870;42.680;23.364;2022-12-16T15:22:18;41.20;;;24.57;;
5690;SDS011;2870;42.680;23.364;2022-12-16T15:25:02;45.63;;;23.07;;
5690;SDS011;2870;42.680;23.364;2022-12-16T15:27:52;46.97;;;25.77;;
5690;SDS011;2870;42.680;23.364;2022-12-16T15:30:38;51.77;;;25.87;;
5690;SDS011;2870;42.680;23.364;2022-12-16T15:33:23;42.10;;;25.00;;
5690;SDS011;2870;42.680;23.364;2022-12-16T15:36:24;46.77;;;27.23;;
5690;SDS011;2870;42.680;23.364;2022-12-16T15:39:18;47.33;;;25.43;;
5690;SDS011;2870;42.680;23.364;2022-12-16T15:42:04;48.13;;;24.47;;
5690;SDS011;2870;42.680;23.364;2022-12-16T15:45:01;39.10;;;21.40;;
5690;SDS011;2870;42.680;23.364;2022-12-16T15:47:47;43.77;;;22.90;;
5690;SDS011;2870;42.680;23.364;2022-12-16T15:50:32;37.40;;;20.30;;
5690;SDS011;2870;42.680;23.364;2022-12-16T15:53:29;37.73;;;19.13;;
5690;SDS011;2870;42.680;23.364;2022-12-16T15:56:18;39.70;;;20.10;;
5690;SDS011;2870;42.680;23.364;2022-12-16T15:59:14;29.93;;;15.00;;
5690;SDS011;2870;42.680;23.364;2022-12-16T16:02:05;24.63;;;15.50;;
5690;SDS011;2870;42.680;23.364;2022-12-16T16:04:57;26.13;;;15.07;;
5690;SDS011;2870;42.680;23.364;2022-12-16T16:07:42;30.93;;;17.10;;
5690;SDS011;2870;42.680;23.364;2022-12-16T16:10:27;28.10;;;14.93;;
5690;SDS011;2870;42.680;23.364;2022-12-16T16:13:11;22.63;;;13.97;;
5690;SDS011;2870;42.680;23.364;2022-12-16T16:15:55;27.33;;;13.83;;
5690;SDS011;2870;42.680;23.364;2022-12-16T16:18:40;29.50;;;16.80;;
5690;SDS011;2870;42.680;23.364;2022-12-16T16:21:26;30.50;;;17.73;;